Time;durP1;ratioP1;P1;durP2;ratioP2;P2;SDS_P1;SDS_P2;PMS_P1;PMS_P2;Temp;Humidity;BMP_temperature;BMP_pressure;BME280_temperature;BME280_humidity;BME280_pressure;Samples;Min_cycle;Max_cycle;Signal;HPM_P1;HPM_P2
2023/03/17 00:00:11;;;;;;;5.55;2.00;;;;;;;;;;5008928;28;20120;-67
2023/03/17 00:02:40;;;;;;;3.90;1.88;;;;;;;;;;5033210;28;20045;-65
2023/03/17 00:05:14;;;;;;;5.40;2.22;;;;;;;;;;5016122;28;20060;-68
2023/03/17 00:07:45;;;;;;;7.47;2.22;;;;;;;;;;4981191;28;20144;-65
2023/03/17 00:10:14;;;;;;;4.07;2.08;;;;;;;;;;5041894;28;20133;-68
2023/03/17 00:12:40;;;;;;;5.05;2.03;;;;;;;;;;5011336;28;20166;-65
2023/03/17 00:15:07;;;;;;;6.78;2.15;;;;;;;;;;5016219;28;20142;-68
2023/03/17 00:17:34;;;;;;;4.82;2.20;;;;;;;;;;5004597;28;20060;-66
2023/03/17 00:20:00;;;;;;;4.22;2.03;;;;;;;;;;5014940;28;20053;-71
2023/03/17 00:22:27;;;;;;;5.38;2.30;;;;;;;;;;5024854;28;20095;-69
2023/03/17 00:24:55;;;;;;;6.30;1.90;;;;;;;;;;5033327;28;20057;-70
2023/03/17 00:27:21;;;;;;;3.63;1.83;;;;;;;;;;4995780;28;20094;-68
2023/03/17 00:29:48;;;;;;;5.63;2.15;;;;;;;;;;5012715;28;20053;-68
2023/03/17 00:32:16;;;;;;;4.50;1.88;;;;;;;;;;5018743;28;20057;-67
2023/03/17 00:34:44;;;;;;;5.22;1.83;;;;;;;;;;5025912;28;20167;-67
2023/03/17 00:37:11;;;;;;;6.47;2.05;;;;;;;;;;5008526;28;20110;-68
2023/03/17 00:39:38;;;;;;;5.15;2.08;;;;;;;;;;5032279;28;20159;-69
2023/03/17 00:42:06;;;;;;;4.22;1.95;;;;;;;;;;5016175;28;20057;-64
2023/03/17 00:44:33;;;;;;;3.80;1.90;;;;;;;;;;5027785;28;20072;-65
2023/03/17 00:47:01;;;;;;;4.55;2.05;;;;;;;;;;5017732;28;20060;-65
2023/03/17 00:49:28;;;;;;;6.30;2.13;;;;;;;;;;5027023;28;20083;-67
2023/03/17 00:51:54;;;;;;;5.35;2.33;;;;;;;;;;5040259;28;20067;-69
2023/03/17 00:54:20;;;;;;;5.57;2.00;;;;;;;;;;5032320;28;20160;-65
2023/03/17 00:56:50;;;;;;;5.47;2.15;;;;;;;;;;5009634;28;20066;-64
2023/03/17 00:59:24;;;;;;;5.28;2.22;;;;;;;;;;4997108;28;20056;-68
2023/03/17 01:01:51;;;;;;;3.20;1.70;;;;;;;;;;5012052;28;20114;-67
2023/03/17 01:04:18;;;;;;;5.28;2.35;;;;;;;;;;5018888;28;20045;-69
2023/03/17 01:06:45;;;;;;;5.28;2.10;;;;;;;;;;4992489;28;20083;-68
2023/03/17 01:09:12;;;;;;;3.88;1.90;;;;;;;;;;4999829;28;20155;-65
2023/03/17 01:11:39;;;;;;;5.25;2.08;;;;;;;;;;5025942;28;20133;-67
2023/03/17 01:14:05;;;;;;;5.03;2.00;;;;;;;;;;5021446;28;20088;-67
2023/03/17 01:16:33;;;;;;;5.03;2.30;;;;;;;;;;5013090;28;20088;-67
2023/03/17 01:19:01;;;;;;;7.00;2.25;;;;;;;;;;5004506;28;20056;-70
2023/03/17 01:21:27;;;;;;;6.22;2.20;;;;;;;;;;5009008;28;20103;-69
2023/03/17 01:23:54;;;;;;;5.30;1.88;;;;;;;;;;5034879;28;20083;-69
2023/03/17 01:26:20;;;;;;;3.45;1.70;;;;;;;;;;5010955;28;20057;-67
2023/03/17 01:28:46;;;;;;;4.07;2.03;;;;;;;;;;5011861;28;20076;-65
2023/03/17 01:31:13;;;;;;;4.03;1.73;;;;;;;;;;5006725;28;20067;-67
2023/03/17 01:33:41;;;;;;;5.20;2.20;;;;;;;;;;5026042;28;20128;-69
2023/03/17 01:36:09;;;;;;;4.57;1.75;;;;;;;;;;5014090;28;20052;-69
2023/03/17 01:38:36;;;;;;;4.63;2.20;;;;;;;;;;5034588;28;20148;-66
2023/03/17 01:41:03;;;;;;;4.68;1.60;;;;;;;;;;5013064;28;20106;-68
2023/03/17 01:43:30;;;;;;;4.85;1.88;;;;;;;;;;5013644;28;21966;-70
2023/03/17 01:46:16;;;;;;;6.88;2.13;;;;;;;;;;5015189;28;20107;-69
2023/03/17 01:48:46;;;;;;;5.03;1.83;;;;;;;;;;4999982;28;20057;-71
2023/03/17 01:51:15;;;;;;;4.85;2.00;;;;;;;;;;5009286;28;20084;-70
2023/03/17 01:53:41;;;;;;;;;;;;;;;;;;5029156;28;20057;-65
2023/03/17 01:56:08;;;;;;;5.05;2.10;;;;;;;;;;5018112;28;20014;-67
2023/03/17 01:58:35;;;;;;;7.13;2.13;;;;;;;;;;5019181;28;20056;-68
2023/03/17 02:01:01;;;;;;;5.20;2.38;;;;;;;;;;5017204;28;20118;-68
2023/03/17 02:03:28;;;;;;;5.03;1.80;;;;;;;;;;5005820;28;20055;-69
2023/03/17 02:05:57;;;;;;;3.58;1.83;;;;;;;;;;5012735;28;20067;-64
2023/03/17 02:08:25;;;;;;;3.80;1.77;;;;;;;;;;5029414;28;20072;-71
2023/03/17 02:10:51;;;;;;;6.03;1.90;;;;;;;;;;5007218;28;20053;-69
2023/03/17 02:13:18;;;;;;;7.72;1.83;;;;;;;;;;5005828;28;20184;-68
2023/03/17 02:15:47;;;;;;;4.32;1.80;;;;;;;;;;5034473;28;20048;-69
2023/03/17 02:18:14;;;;;;;3.05;1.73;;;;;;;;;;5034273;28;20053;-66
2023/03/17 02:21:02;;;;;;;4.22;1.73;;;;;;;;;;5031756;28;20144;-65
2023/03/17 02:23:30;;;;;;;4.70;1.92;;;;;;;;;;4990117;28;20117;-65
2023/03/17 02:25:57;;;;;;;3.95;1.40;;;;;;;;;;5019924;28;20055;-67
2023/03/17 02:28:25;;;;;;;4.25;1.75;;;;;;;;;;5005810;28;20102;-66
2023/03/17 02:30:52;;;;;;;4.00;1.88;;;;;;;;;;5022174;28;20061;-69
2023/03/17 02:33:19;;;;;;;4.45;1.70;;;;;;;;;;5013853;28;20056;-70
2023/03/17 02:35:46;;;;;;;5.50;1.85;;;;;;;;;;5006008;28;20203;-70
2023/03/17 02:38:12;;;;;;;4.45;1.80;;;;;;;;;;5016179;28;20060;-67
2023/03/17 02:40:40;;;;;;;4.40;1.65;;;;;;;;;;5037245;28;20139;-67
2023/03/17 02:43:07;;;;;;;3.63;1.80;;;;;;;;;;5032603;28;28704;-69
2023/03/17 02:45:35;;;;;;;5.78;1.85;;;;;;;;;;5016274;28;20080;-65
2023/03/17 02:48:02;;;;;;;2.80;1.40;;;;;;;;;;5018992;28;20134;-69
2023/03/17 02:50:30;;;;;;;3.67;1.55;;;;;;;;;;5011781;28;20057;-69
2023/03/17 02:52:57;;;;;;;2.63;1.38;;;;;;;;;;5021091;28;20068;-68
2023/03/17 02:55:23;;;;;;;4.43;1.50;;;;;;;;;;5011299;28;20057;-68
2023/03/17 02:57:51;;;;;;;3.80;1.50;;;;;;;;;;5018156;28;20060;-66
2023/03/17 03:00:18;;;;;;;8.20;1.67;;;;;;;;;;5035362;28;20052;-69
2023/03/17 03:02:45;;;;;;;4.07;1.73;;;;;;;;;;5036703;28;20133;-65
2023/03/17 03:05:11;;;;;;;3.78;1.70;;;;;;;;;;4958088;28;20071;-68
2023/03/17 03:07:37;;;;;;;4.28;1.90;;;;;;;;;;5000046;28;20076;-65
2023/03/17 03:10:04;;;;;;;3.55;1.50;;;;;;;;;;5020595;28;20143;-64
2023/03/17 03:12:32;;;;;;;3.88;1.85;;;;;;;;;;5033979;28;20083;-69
2023/03/17 03:15:00;;;;;;;3.65;1.75;;;;;;;;;;5001367;28;20219;-66
2023/03/17 03:17:27;;;;;;;4.72;1.73;;;;;;;;;;5024571;28;20053;-66
2023/03/17 03:19:54;;;;;;;5.43;1.75;;;;;;;;;;5033019;28;20077;-67
2023/03/17 03:22:20;;;;;;;4.63;2.00;;;;;;;;;;5036630;28;20048;-69
2023/03/17 03:24:47;;;;;;;3.90;1.77;;;;;;;;;;5014103;28;20082;-66
2023/03/17 03:27:13;;;;;;;3.50;1.73;;;;;;;;;;5003893;28;20130;-66
2023/03/17 03:29:40;;;;;;;4.78;1.90;;;;;;;;;;5019644;28;20132;-69
2023/03/17 03:32:08;;;;;;;4.43;1.67;;;;;;;;;;5033263;28;20053;-69
2023/03/17 03:34:35;;;;;;;3.25;1.40;;;;;;;;;;5010424;28;20096;-65
2023/03/17 03:37:01;;;;;;;3.22;1.60;;;;;;;;;;5005960;28;20061;-69
2023/03/17 03:39:27;;;;;;;4.57;1.80;;;;;;;;;;5010368;28;20056;-64
2023/03/17 03:41:56;;;;;;;4.22;1.73;;;;;;;;;;5026148;28;20120;-63
2023/03/17 03:44:22;;;;;;;3.63;1.65;;;;;;;;;;5032803;28;20056;-65
2023/03/17 03:46:50;;;;;;;5.55;1.77;;;;;;;;;;5003407;28;20049;-64
2023/03/17 03:49:18;;;;;;;4.70;1.80;;;;;;;;;;5047461;28;20052;-67
2023/03/17 03:51:44;;;;;;;4.57;1.57;;;;;;;;;;5035921;28;20116;-68
2023/03/17 03:54:11;;;;;;;4.30;1.60;;;;;;;;;;5007232;28;20140;-67
2023/03/17 03:56:37;;;;;;;3.40;1.60;;;;;;;;;;5013472;28;20053;-68
2023/03/17 03:59:04;;;;;;;3.95;1.70;;;;;;;;;;5039814;28;20072;-65
2023/03/17 04:01:30;;;;;;;3.28;1.42;;;;;;;;;;5035154;28;20080;-66
2023/03/17 04:03:57;;;;;;;5.93;1.50;;;;;;;;;;5038454;28;20045;-68
2023/03/17 04:06:27;;;;;;;6.55;1.60;;;;;;;;;;5018647;28;20063;-63
2023/03/17 04:08:53;;;;;;;5.93;1.50;;;;;;;;;;5045617;28;20062;-63
2023/03/17 04:11:20;;;;;;;3.10;1.42;;;;;;;;;;5056670;28;20143;-67
2023/03/17 04:13:46;;;;;;;3.60;1.75;;;;;;;;;;5051821;28;20068;-67
2023/03/17 04:16:13;;;;;;;3.72;1.73;;;;;;;;;;5008166;28;20052;-65
2023/03/17 04:18:40;;;;;;;4.40;1.55;;;;;;;;;;5025337;28;20344;-65
2023/03/17 04:21:07;;;;;;;5.00;1.73;;;;;;;;;;5056445;28;20143;-68
2023/03/17 04:23:35;;;;;;;4.45;1.42;;;;;;;;;;5025393;28;20064;-65
2023/03/17 04:26:02;;;;;;;3.00;1.35;;;;;;;;;;5016748;28;20064;-67
2023/03/17 04:28:29;;;;;;;3.90;1.57;;;;;;;;;;5029984;28;20171;-65
2023/03/17 04:30:55;;;;;;;3.60;1.58;;;;;;;;;;5056313;28;20102;-69
2023/03/17 04:33:22;;;;;;;4.45;1.50;;;;;;;;;;5035289;28;20113;-69
2023/03/17 04:35:48;;;;;;;4.63;1.60;;;;;;;;;;5045694;28;20113;-68
2023/03/17 04:38:15;;;;;;;4.07;1.50;;;;;;;;;;5053809;28;20037;-66
2023/03/17 04:40:43;;;;;;;3.95;1.42;;;;;;;;;;5030716;28;20091;-67
2023/03/17 04:43:09;;;;;;;3.08;1.45;;;;;;;;;;5036687;28;20052;-68
2023/03/17 04:45:36;;;;;;;4.25;1.58;;;;;;;;;;5025249;28;20084;-66
2023/03/17 04:48:03;;;;;;;2.88;1.45;;;;;;;;;;5037964;28;20052;-66
2023/03/17 04:50:31;;;;;;;5.75;1.75;;;;;;;;;;5026836;28;20086;-68
2023/03/17 04:52:58;;;;;;;4.43;1.70;;;;;;;;;;5038473;28;20118;-66
2023/03/17 04:55:24;;;;;;;3.40;1.75;;;;;;;;;;5027217;28;20112;-65
2023/03/17 04:57:52;;;;;;;5.50;1.75;;;;;;;;;;5037507;28;20113;-65
2023/03/17 05:00:20;;;;;;;3.27;1.50;;;;;;;;;;5053509;28;20052;-67
2023/03/17 05:02:46;;;;;;;3.50;1.70;;;;;;;;;;5037646;28;20066;-68
2023/03/17 05:05:13;;;;;;;3.72;1.40;;;;;;;;;;5019615;28;20137;-65
2023/03/17 05:07:40;;;;;;;4.40;1.60;;;;;;;;;;5038867;28;20059;-66
2023/03/17 05:10:08;;;;;;;3.65;1.33;;;;;;;;;;5030223;28;20057;-66
2023/03/17 05:12:34;;;;;;;4.93;1.67;;;;;;;;;;5018982;28;20088;-69
2023/03/17 05:15:04;;;;;;;3.92;1.67;;;;;;;;;;4996980;28;20190;-67
2023/03/17 05:17:30;;;;;;;7.20;1.80;;;;;;;;;;4991338;28;20068;-68
2023/03/17 05:19:57;;;;;;;3.85;1.48;;;;;;;;;;5045556;28;20139;-70
2023/03/17 05:22:23;;;;;;;3.30;1.60;;;;;;;;;;5014845;28;20056;-65
2023/03/17 05:24:50;;;;;;;4.10;1.80;;;;;;;;;;5040783;28;20063;-69
2023/03/17 05:27:16;;;;;;;3.13;1.58;;;;;;;;;;5055239;28;20084;-66
2023/03/17 05:29:42;;;;;;;7.15;2.08;;;;;;;;;;5038584;28;20128;-67
2023/03/17 05:32:10;;;;;;;6.32;1.95;;;;;;;;;;5032953;28;20068;-66
2023/03/17 05:34:37;;;;;;;3.75;1.63;;;;;;;;;;5026312;28;20068;-65
2023/03/17 05:37:03;;;;;;;4.80;1.80;;;;;;;;;;5055063;28;20094;-63
2023/03/17 05:39:30;;;;;;;5.57;1.90;;;;;;;;;;5035106;28;20052;-68
2023/03/17 05:41:56;;;;;;;3.78;1.60;;;;;;;;;;5025913;28;20084;-64
2023/03/17 05:44:23;;;;;;;4.82;1.80;;;;;;;;;;5032161;28;22196;-65
2023/03/17 05:46:50;;;;;;;3.58;1.65;;;;;;;;;;5042320;28;20139;-65
2023/03/17 05:49:19;;;;;;;4.82;1.90;;;;;;;;;;5037867;28;20131;-69
2023/03/17 05:51:45;;;;;;;4.75;1.85;;;;;;;;;;5023214;28;20056;-66
2023/03/17 05:54:12;;;;;;;6.65;1.83;;;;;;;;;;5054710;28;20125;-66
2023/03/17 05:56:39;;;;;;;7.07;1.90;;;;;;;;;;5027222;28;20119;-68
2023/03/17 05:59:05;;;;;;;6.35;1.88;;;;;;;;;;5010139;28;20081;-66
2023/03/17 06:01:32;;;;;;;5.07;1.80;;;;;;;;;;5039744;28;20052;-65
2023/03/17 06:04:00;;;;;;;5.72;1.98;;;;;;;;;;5032612;28;20056;-68
2023/03/17 06:06:31;;;;;;;4.70;1.70;;;;;;;;;;5020424;28;20076;-68
2023/03/17 06:08:57;;;;;;;3.95;1.85;;;;;;;;;;5030608;28;20060;-67
2023/03/17 06:11:24;;;;;;;4.82;1.95;;;;;;;;;;5032566;28;20064;-67
2023/03/17 06:13:50;;;;;;;7.47;2.25;;;;;;;;;;5048122;28;20075;-67
2023/03/17 06:16:17;;;;;;;4.15;1.90;;;;;;;;;;5023013;28;20125;-66
2023/03/17 06:18:44;;;;;;;6.65;2.13;;;;;;;;;;5020545;28;20060;-67
2023/03/17 06:21:11;;;;;;;4.22;1.88;;;;;;;;;;5020018;28;20080;-66
2023/03/17 06:23:39;;;;;;;5.25;1.80;;;;;;;;;;5012098;28;20061;-70
2023/03/17 06:26:05;;;;;;;5.63;2.00;;;;;;;;;;5004460;28;20118;-66
2023/03/17 06:28:34;;;;;;;3.83;1.40;;;;;;;;;;5046761;28;20053;-67
2023/03/17 06:31:03;;;;;;;4.72;2.15;;;;;;;;;;5055995;28;20064;-67
2023/03/17 06:33:29;;;;;;;5.47;1.80;;;;;;;;;;5029853;28;20048;-69
2023/03/17 06:35:57;;;;;;;5.13;2.20;;;;;;;;;;5049548;28;20056;-65
2023/03/17 06:38:27;;;;;;;4.53;2.00;;;;;;;;;;5048493;28;20143;-69
2023/03/17 06:40:55;;;;;;;4.45;1.98;;;;;;;;;;5049305;28;21218;-68
2023/03/17 06:43:23;;;;;;;3.95;1.77;;;;;;;;;;5040299;28;20053;-66
2023/03/17 06:45:52;;;;;;;5.05;2.10;;;;;;;;;;5026585;28;20076;-66
2023/03/17 06:48:25;;;;;;;5.50;1.85;;;;;;;;;;5062045;28;20060;-67
2023/03/17 06:50:51;;;;;;;5.63;1.90;;;;;;;;;;5046107;28;20114;-66
2023/03/17 06:53:18;;;;;;;4.80;2.20;;;;;;;;;;5037822;28;20076;-67
2023/03/17 06:55:44;;;;;;;5.22;2.03;;;;;;;;;;5014524;28;20056;-64
2023/03/17 06:58:15;;;;;;;4.65;2.00;;;;;;;;;;5037000;28;20048;-66
2023/03/17 07:00:44;;;;;;;4.43;1.90;;;;;;;;;;5024488;28;20048;-68
2023/03/17 07:03:10;;;;;;;5.35;2.00;;;;;;;;;;5047404;28;20083;-67
2023/03/17 07:05:38;;;;;;;4.68;2.20;;;;;;;;;;5035411;28;20080;-68
2023/03/17 07:08:08;;;;;;;6.35;1.92;;;;;;;;;;5024325;28;20071;-63
2023/03/17 07:10:36;;;;;;;4.45;2.03;;;;;;;;;;5012559;27;20144;-68
2023/03/17 07:13:07;;;;;;;8.95;2.40;;;;;;;;;;5025155;28;20056;-67
2023/03/17 07:15:36;;;;;;;4.18;1.95;;;;;;;;;;5028967;28;20081;-66
2023/03/17 07:18:02;;;;;;;5.82;2.30;;;;;;;;;;5046072;28;20056;-70
2023/03/17 07:20:31;;;;;;;6.40;2.67;;;;;;;;;;5057363;28;20073;-66
2023/03/17 07:22:57;;;;;;;;;;;;;;;;;;5047761;28;20056;-65
2023/03/17 07:25:24;;;;;;;4.45;1.80;;;;;;;;;;5021272;28;19920;-68
2023/03/17 07:27:51;;;;;;;4.22;1.95;;;;;;;;;;5069562;28;20080;-71
2023/03/17 07:30:20;;;;;;;5.68;2.20;;;;;;;;;;5027519;28;20123;-72
2023/03/17 07:32:51;;;;;;;4.57;1.88;;;;;;;;;;4997352;28;20048;-68
2023/03/17 07:35:19;;;;;;;4.10;1.93;;;;;;;;;;5010608;28;20060;-67
2023/03/17 07:37:46;;;;;;;5.30;2.08;;;;;;;;;;5048028;28;20305;-68
2023/03/17 07:40:14;;;;;;;4.55;2.15;;;;;;;;;;5035233;28;20139;-66
2023/03/17 07:42:40;;;;;;;5.93;2.17;;;;;;;;;;5029430;28;20048;-68
2023/03/17 07:45:10;;;;;;;4.78;1.83;;;;;;;;;;5009112;28;20076;-67
2023/03/17 07:47:38;;;;;;;5.13;2.20;;;;;;;;;;5021214;28;20134;-68
2023/03/17 07:50:06;;;;;;;7.65;2.35;;;;;;;;;;5038139;28;20069;-69
2023/03/17 07:52:41;;;;;;;5.72;2.50;;;;;;;;;;5034596;28;20104;-66
2023/03/17 07:55:09;;;;;;;6.05;2.20;;;;;;;;;;5034048;28;20090;-69
2023/03/17 07:57:37;;;;;;;5.90;2.35;;;;;;;;;;5011321;28;20140;-70
2023/03/17 08:00:08;;;;;;;5.78;2.45;;;;;;;;;;5066793;28;20071;-66
2023/03/17 08:02:37;;;;;;;6.22;2.53;;;;;;;;;;5062799;28;20150;-69
2023/03/17 08:05:06;;;;;;;3.40;1.85;;;;;;;;;;5040389;28;20082;-67
2023/03/17 08:07:37;;;;;;;7.53;2.33;;;;;;;;;;5043771;28;20044;-70
2023/03/17 08:10:06;;;;;;;8.60;2.75;;;;;;;;;;5043228;28;20059;-67
2023/03/17 08:12:34;;;;;;;;;;;;;;;;;;5023073;28;20059;-69
2023/03/17 08:15:01;;;;;;;4.97;2.40;;;;;;;;;;5048430;28;19931;-68
2023/03/17 08:17:30;;;;;;;7.03;2.30;;;;;;;;;;5038147;28;20153;-65
2023/03/17 08:19:57;;;;;;;6.00;2.22;;;;;;;;;;5047258;28;20083;-67
2023/03/17 08:22:24;;;;;;;5.57;2.17;;;;;;;;;;5049364;28;20052;-67
2023/03/17 08:24:52;;;;;;;7.35;2.50;;;;;;;;;;5055269;28;20178;-67
2023/03/17 08:27:20;;;;;;;5.93;2.22;;;;;;;;;;5084319;28;20119;-69
2023/03/17 08:29:47;;;;;;;5.05;2.33;;;;;;;;;;5054136;28;20088;-63
2023/03/17 08:32:15;;;;;;;7.55;2.53;;;;;;;;;;5030672;28;20172;-64
2023/03/17 08:34:43;;;;;;;;;;;;;;;;;;5046097;27;20056;-66
2023/03/17 08:37:09;;;;;;;4.78;2.22;;;;;;;;;;5040916;28;19920;-67
2023/03/17 08:39:39;;;;;;;5.55;2.38;;;;;;;;;;5063133;28;20214;-63
2023/03/17 08:42:10;;;;;;;4.78;2.20;;;;;;;;;;5031744;28;20065;-67
2023/03/17 08:44:37;;;;;;;5.65;2.22;;;;;;;;;;5026668;28;20056;-63
2023/03/17 08:47:04;;;;;;;4.95;2.40;;;;;;;;;;5024016;28;20138;-65
2023/03/17 08:49:33;;;;;;;5.32;2.35;;;;;;;;;;5014588;28;20048;-68
2023/03/17 08:52:00;;;;;;;6.75;2.38;;;;;;;;;;5029341;28;20064;-68
2023/03/17 08:54:29;;;;;;;6.25;2.78;;;;;;;;;;5033370;28;20063;-69
2023/03/17 08:56:56;;;;;;;4.97;2.25;;;;;;;;;;5025988;28;20169;-66
2023/03/17 08:59:25;;;;;;;6.80;2.38;;;;;;;;;;5021628;28;20055;-67
2023/03/17 09:01:52;;;;;;;7.88;2.70;;;;;;;;;;5049209;28;20044;-68
2023/03/17 09:04:22;;;;;;;8.32;2.50;;;;;;;;;;5057709;28;20083;-63
2023/03/17 09:06:49;;;;;;;6.03;2.58;;;;;;;;;;5045453;28;20060;-67
2023/03/17 09:09:16;;;;;;;6.63;2.50;;;;;;;;;;5044496;28;20052;-66
2023/03/17 09:11:48;;;;;;;8.75;2.72;;;;;;;;;;5013496;28;20059;-67
2023/03/17 09:14:15;;;;;;;6.50;2.33;;;;;;;;;;5053304;28;20049;-68
2023/03/17 09:16:43;;;;;;;5.82;2.63;;;;;;;;;;5014079;28;20059;-65
2023/03/17 09:19:09;;;;;;;6.82;2.60;;;;;;;;;;5008055;28;20080;-68
2023/03/17 09:21:37;;;;;;;7.07;2.50;;;;;;;;;;5015662;28;20115;-67
2023/03/17 09:24:04;;;;;;;5.38;2.35;;;;;;;;;;5064713;28;20072;-67
2023/03/17 09:26:33;;;;;;;5.72;2.42;;;;;;;;;;5023964;28;20155;-67
2023/03/17 09:28:59;;;;;;;6.30;2.30;;;;;;;;;;5071319;28;20074;-66
2023/03/17 09:31:27;;;;;;;8.00;2.45;;;;;;;;;;5024319;28;20141;-66
2023/03/17 09:33:57;;;;;;;5.13;2.40;;;;;;;;;;5031447;28;20117;-65
2023/03/17 09:36:23;;;;;;;7.30;2.90;;;;;;;;;;5021802;28;20060;-67
2023/03/17 09:38:50;;;;;;;12.32;2.80;;;;;;;;;;5063712;28;20063;-64
2023/03/17 09:41:27;;;;;;;6.57;2.97;;;;;;;;;;5048869;28;20068;-69
2023/03/17 09:43:56;;;;;;;6.28;2.42;;;;;;;;;;5067862;28;20060;-67
2023/03/17 09:46:29;;;;;;;6.13;2.70;;;;;;;;;;5049423;28;20052;-66
2023/03/17 09:49:02;;;;;;;8.30;2.72;;;;;;;;;;5042346;28;20059;-65
2023/03/17 09:51:29;;;;;;;6.40;2.45;;;;;;;;;;5032077;28;20265;-67
2023/03/17 09:54:00;;;;;;;5.78;2.70;;;;;;;;;;5052263;28;23197;-66
2023/03/17 09:56:27;;;;;;;5.93;2.60;;;;;;;;;;5024483;28;20050;-67
2023/03/17 09:58:57;;;;;;;6.63;3.00;;;;;;;;;;4994298;28;20102;-66
2023/03/17 10:01:24;;;;;;;7.05;2.53;;;;;;;;;;5025896;28;20341;-63
2023/03/17 10:03:51;;;;;;;6.57;2.50;;;;;;;;;;5031933;28;20057;-66
2023/03/17 10:06:32;;;;;;;6.13;2.92;;;;;;;;;;5039758;28;20135;-66
2023/03/17 10:09:01;;;;;;;6.47;2.45;;;;;;;;;;5059181;28;20063;-67
2023/03/17 10:11:33;;;;;;;5.50;2.50;;;;;;;;;;5045967;28;20048;-67
2023/03/17 10:14:02;;;;;;;6.47;2.75;;;;;;;;;;5036882;28;20131;-68
2023/03/17 10:16:33;;;;;;;9.27;2.95;;;;;;;;;;5029517;28;20057;-68
2023/03/17 10:19:04;;;;;;;7.63;2.85;;;;;;;;;;5030288;28;20138;-67
2023/03/17 10:21:33;;;;;;;8.63;2.97;;;;;;;;;;5019786;28;20073;-63
2023/03/17 10:24:00;;;;;;;5.28;2.63;;;;;;;;;;5041865;28;20048;-65
2023/03/17 10:26:30;;;;;;;7.45;2.55;;;;;;;;;;5025609;28;20125;-64
2023/03/17 10:29:02;;;;;;;6.18;2.88;;;;;;;;;;5020769;28;20048;-67
2023/03/17 10:31:31;;;;;;;6.00;2.78;;;;;;;;;;5050929;28;20066;-68
2023/03/17 10:34:04;;;;;;;6.20;2.42;;;;;;;;;;5029388;28;20056;-64
2023/03/17 10:36:36;;;;;;;9.18;3.25;;;;;;;;;;4999573;28;20135;-68
2023/03/17 10:39:04;;;;;;;9.38;3.25;;;;;;;;;;5041414;28;20059;-63
2023/03/17 10:41:31;;;;;;;8.38;2.83;;;;;;;;;;5039250;28;20050;-67
2023/03/17 10:43:58;;;;;;;7.03;2.97;;;;;;;;;;5040593;28;20056;-65
2023/03/17 10:46:25;;;;;;;7.32;3.05;;;;;;;;;;5044015;28;20044;-68
2023/03/17 10:48:55;;;;;;;7.40;3.47;;;;;;;;;;5032899;28;20057;-65
2023/03/17 10:51:28;;;;;;;6.05;2.65;;;;;;;;;;4998587;28;20059;-67
2023/03/17 10:53:59;;;;;;;6.47;2.83;;;;;;;;;;5008037;28;20154;-64
2023/03/17 10:56:28;;;;;;;7.68;2.92;;;;;;;;;;5036606;28;20056;-69
2023/03/17 10:58:55;;;;;;;8.10;2.95;;;;;;;;;;4981274;28;20068;-66
2023/03/17 11:01:29;;;;;;;7.35;3.00;;;;;;;;;;5005582;28;20053;-68
2023/03/17 11:03:56;;;;;;;7.30;3.10;;;;;;;;;;4994801;28;21981;-67
2023/03/17 11:06:32;;;;;;;9.50;3.70;;;;;;;;;;5011914;28;20064;-68
2023/03/17 11:09:05;;;;;;;9.82;3.53;;;;;;;;;;5021131;28;20064;-66
2023/03/17 11:11:33;;;;;;;10.25;3.15;;;;;;;;;;5012146;28;20061;-64
2023/03/17 11:14:05;;;;;;;7.45;3.13;;;;;;;;;;5029516;28;20053;-67
2023/03/17 11:16:34;;;;;;;7.72;3.20;;;;;;;;;;5004440;28;20136;-66
2023/03/17 11:19:01;;;;;;;8.07;3.50;;;;;;;;;;5005456;28;20056;-69
2023/03/17 11:21:30;;;;;;;8.73;3.53;;;;;;;;;;5002780;28;20048;-66
2023/03/17 11:23:59;;;;;;;9.52;3.88;;;;;;;;;;4998203;28;20045;-67
2023/03/17 11:26:41;;;;;;;7.50;3.25;;;;;;;;;;5019400;28;20077;-64
2023/03/17 11:29:16;;;;;;;9.30;3.58;;;;;;;;;;5023457;28;20052;-67
2023/03/17 11:31:46;;;;;;;7.78;3.38;;;;;;;;;;5032453;28;20044;-67
2023/03/17 11:34:18;;;;;;;10.02;3.40;;;;;;;;;;5015095;28;20053;-68
2023/03/17 11:36:49;;;;;;;10.13;3.78;;;;;;;;;;5034930;28;20073;-66
2023/03/17 11:39:16;;;;;;;8.38;3.35;;;;;;;;;;5014576;28;20056;-69
2023/03/17 11:42:00;;;;;;;7.10;3.22;;;;;;;;;;5010932;28;20057;-68
2023/03/17 11:44:46;;;;;;;9.10;3.67;;;;;;;;;;5028532;28;20067;-66
2023/03/17 11:47:19;;;;;;;7.70;3.42;;;;;;;;;;5001488;28;20053;-67
2023/03/17 11:49:52;;;;;;;7.40;3.47;;;;;;;;;;5020374;28;20057;-66
2023/03/17 11:52:25;;;;;;;9.70;3.90;;;;;;;;;;5052043;28;20060;-65
2023/03/17 11:54:56;;;;;;;8.85;3.65;;;;;;;;;;5035637;28;20056;-66
2023/03/17 11:57:31;;;;;;;9.88;3.50;;;;;;;;;;5009370;28;20060;-69
2023/03/17 12:00:01;;;;;;;8.85;3.35;;;;;;;;;;5029940;28;20057;-68
2023/03/17 12:02:29;;;;;;;8.75;3.08;;;;;;;;;;5048400;28;20060;-65
2023/03/17 12:05:00;;;;;;;6.97;3.00;;;;;;;;;;5012516;28;20053;-67
2023/03/17 12:07:29;;;;;;;9.98;3.40;;;;;;;;;;4997916;28;20060;-67
2023/03/17 12:10:02;;;;;;;8.90;3.80;;;;;;;;;;5013831;28;20064;-67
2023/03/17 12:12:31;;;;;;;8.68;3.85;;;;;;;;;;4991188;28;20087;-68
2023/03/17 12:15:02;;;;;;;7.68;3.45;;;;;;;;;;5013613;28;20091;-65
2023/03/17 12:17:33;;;;;;;10.73;4.40;;;;;;;;;;4989355;28;20059;-68
2023/03/17 12:20:05;;;;;;;10.60;3.67;;;;;;;;;;5019667;28;20041;-66
2023/03/17 12:22:36;;;;;;;8.82;3.70;;;;;;;;;;5023919;28;20102;-67
2023/03/17 12:25:07;;;;;;;8.02;3.80;;;;;;;;;;5018606;28;20060;-65
2023/03/17 12:27:41;;;;;;;9.45;3.97;;;;;;;;;;5017869;28;20115;-63
2023/03/17 12:30:15;;;;;;;10.75;3.75;;;;;;;;;;5007380;28;20064;-67
2023/03/17 12:32:46;;;;;;;9.75;3.95;;;;;;;;;;5010208;28;20057;-64
2023/03/17 12:35:25;;;;;;;12.52;4.55;;;;;;;;;;5034336;28;20054;-66
2023/03/17 12:37:52;;;;;;;7.28;3.17;;;;;;;;;;4988812;28;20152;-65
2023/03/17 12:40:20;;;;;;;8.48;3.47;;;;;;;;;;5025262;28;20090;-67
2023/03/17 12:43:00;;;;;;;9.00;3.30;;;;;;;;;;4987511;28;20093;-66
2023/03/17 12:45:51;;;;;;;10.77;3.63;;;;;;;;;;5023865;28;20137;-68
2023/03/17 12:48:34;;;;;;;9.02;3.47;;;;;;;;;;4981463;28;20087;-64
2023/03/17 12:51:16;;;;;;;9.13;3.70;;;;;;;;;;5023456;28;20057;-67
2023/03/17 12:53:50;;;;;;;8.18;3.50;;;;;;;;;;4968049;28;20053;-65
2023/03/17 12:56:19;;;;;;;9.00;3.65;;;;;;;;;;4979492;28;20065;-65
2023/03/17 12:58:58;;;;;;;8.85;3.50;;;;;;;;;;4965949;28;20061;-66
2023/03/17 13:01:32;;;;;;;7.50;3.78;;;;;;;;;;4992490;28;20044;-67
2023/03/17 13:04:13;;;;;;;6.50;3.03;;;;;;;;;;4977980;28;20060;-64
2023/03/17 13:06:42;;;;;;;6.47;3.38;;;;;;;;;;4977477;28;20142;-67
2023/03/17 13:09:29;;;;;;;9.10;3.72;;;;;;;;;;4899595;28;20056;-64
2023/03/17 13:11:57;;;;;;;7.82;3.30;;;;;;;;;;4951484;28;20080;-67
2023/03/17 13:14:30;;;;;;;7.10;3.03;;;;;;;;;;5001620;28;20057;-66
2023/03/17 13:17:06;;;;;;;8.63;2.92;;;;;;;;;;4988728;28;20045;-66
2023/03/17 13:22:32;;;;;;;6.90;3.17;;;;;;;;;;4871651;29;20122;-65
2023/03/17 13:25:19;;;;;;;7.82;3.15;;;;;;;;;;4930445;28;20055;-64
2023/03/17 13:27:49;;;;;;;7.40;2.90;;;;;;;;;;4898253;28;20051;-63
2023/03/17 13:30:34;;;;;;;6.55;2.55;;;;;;;;;;4983148;28;20065;-65
2023/03/17 13:33:18;;;;;;;6.45;2.88;;;;;;;;;;5023556;28;20056;-65
2023/03/17 13:35:47;;;;;;;8.88;3.30;;;;;;;;;;5006799;28;20144;-65
2023/03/17 13:38:27;;;;;;;7.60;3.35;;;;;;;;;;5018030;28;20057;-63
2023/03/17 13:41:08;;;;;;;7.13;3.20;;;;;;;;;;5018686;28;20104;-65
2023/03/17 13:43:44;;;;;;;8.00;2.83;;;;;;;;;;5001789;28;20049;-64
2023/03/17 13:46:21;;;;;;;6.20;2.88;;;;;;;;;;4990799;28;20057;-67
2023/03/17 13:49:00;;;;;;;6.15;2.65;;;;;;;;;;4978352;28;20050;-65
2023/03/17 13:51:32;;;;;;;6.97;3.10;;;;;;;;;;5031832;28;20051;-67
2023/03/17 13:54:10;;;;;;;8.52;2.90;;;;;;;;;;5026955;28;20059;-66
2023/03/17 13:56:38;;;;;;;;;;;;;;;;;;5030775;28;20135;-66
2023/03/17 13:59:15;;;;;;;4.88;2.58;;;;;;;;;;4988460;28;19932;-67
2023/03/17 14:01:46;;;;;;;6.85;2.97;;;;;;;;;;4987095;28;20157;-66
2023/03/17 14:04:26;;;;;;;7.30;3.25;;;;;;;;;;5007221;28;20057;-69
2023/03/17 14:07:00;;;;;;;6.88;3.13;;;;;;;;;;4973185;28;20057;-66
2023/03/17 14:09:33;;;;;;;6.78;3.10;;;;;;;;;;5018228;28;20098;-63
2023/03/17 14:12:13;;;;;;;6.07;2.95;;;;;;;;;;5023197;28;20138;-65
2023/03/17 14:14:46;;;;;;;7.53;2.97;;;;;;;;;;5053415;28;20071;-65
2023/03/17 14:17:19;;;;;;;5.18;2.65;;;;;;;;;;5015532;28;20049;-67
2023/03/17 14:20:07;;;;;;;6.47;3.10;;;;;;;;;;5037093;28;21896;-65
2023/03/17 14:22:41;;;;;;;5.53;2.60;;;;;;;;;;5038229;28;20128;-66
2023/03/17 14:25:16;;;;;;;6.28;3.03;;;;;;;;;;5035130;28;20056;-67
2023/03/17 14:27:46;;;;;;;7.40;2.80;;;;;;;;;;5025934;28;20071;-65
2023/03/17 14:30:17;;;;;;;5.97;3.05;;;;;;;;;;5047214;28;20052;-67
2023/03/17 14:32:46;;;;;;;6.93;2.83;;;;;;;;;;5028627;28;20063;-65
2023/03/17 14:35:34;;;;;;;9.07;3.13;;;;;;;;;;5025229;28;20049;-66
2023/03/17 14:38:05;;;;;;;6.70;3.00;;;;;;;;;;4986174;28;20116;-66
2023/03/17 14:40:35;;;;;;;8.15;3.17;;;;;;;;;;5025767;28;20048;-64
2023/03/17 14:43:05;;;;;;;5.97;2.92;;;;;;;;;;5009768;28;20140;-66
2023/03/17 14:45:41;;;;;;;5.22;2.67;;;;;;;;;;5019985;28;20068;-63
2023/03/17 14:48:09;;;;;;;5.55;2.88;;;;;;;;;;5015840;28;20135;-65
2023/03/17 14:50:36;;;;;;;7.83;3.17;;;;;;;;;;5006355;28;20058;-66
2023/03/17 14:53:04;;;;;;;6.93;3.22;;;;;;;;;;5031229;28;20305;-63
2023/03/17 14:55:36;;;;;;;6.50;2.88;;;;;;;;;;5033211;28;20063;-65
2023/03/17 14:58:09;;;;;;;8.70;2.80;;;;;;;;;;4993435;28;20089;-67